Hauptseite
METAR-TAF:

METAR-TAF

Flughäfen :

Waterbury-Oxford Airport

Oxford, Connecticut, Vereinigte Staaten

Breite: 41-29N, Länge: 073-08W, Höhe: 222 m

Beobachtung

Neuester Wetterbericht von vor 1 Stunde und 4 Minuten, um 00:51 UTC
Wind 6 kt aus Süd/Südost
Temperatur 13°C
Luftfeuchtigkeit 77%
Luftdruck 1024 hPa
Sichtweite: 16.1 km
Himmel klar

METAR: KOXC 250051Z 16006KT 10SM CLR 13/09 A3024 RMK AO2 SLP254 T01280094

Zeit: 21:55 (01:55 UTC)


TAF: fehlend

Wetterbeobachtungen und Prognosen von mehr als 4000 Flughäfen (METAR und TAF Bericht).

Die verfügbaren Stationen werden durch gelbe und rote Markierungen auf der Karte dargestellt.

Führen Sie die Maus auf sie, um den Namen der Station zu sehen.

Darauf klicken, um die Beobachtung von Wetterbeobachtungen und Prognosen zu sehen.

Um die Karte zu ändern : klicken Sie auf den grünen Tasten mit einem schwarzen Kreuz Zum Vergrößern, auf den grünen Button mit einem Gedankenstrich zu verkleinern, oder auf die grünen Pfeile für benachbarte Karten.


METAR-TAF: